This is the latest recevied weather packets stored in our database for station/object DL5DI-H. If no packets are shown the sender has not sent any weather packets the latest 10 day(s).
| Time | Temp. | Humidity | Pressure | Rain* | Wind** | Luminosity | Snow |
|---|---|---|---|---|---|---|---|
| 1777150205 | 11.67° C | 53% | 1021.2 hPa | 0 mm | - | - | - |
| 1777149605 | 11.67° C | 53% | 1021.2 hPa | 0 mm | - | - | - |
| 1777149005 | 12.22° C | 52% | 1021.2 hPa | 0 mm | - | - | - |
| 1777148405 | 12.78° C | 49% | 1021.2 hPa | 0 mm | - | - | - |
| 1777147805 | 12.78° C | 49% | 1021.2 hPa | 0 mm | - | - | - |
| 1777147201 | 13.33° C | 48% | 1021.2 hPa | 0 mm | - | - | - |
| 1777146605 | 15.56° C | 39% | 1020.6 hPa | 0 mm | - | - | - |
| 1777146001 | 15.56° C | 39% | 1020.6 hPa | 0 mm | - | - | - |
| 1777145405 | 15.56° C | 39% | 1020.6 hPa | 0 mm | - | - | - |
| 1777144801 | 15.56° C | 39% | 1020.6 hPa | 0 mm | - | - | - |
| 1777144205 | 15.56° C | 39% | 1020.6 hPa | 0 mm | - | - | - |
| 1777143601 | 15.56° C | 39% | 1020.6 hPa | 0 mm | - | - | - |
| 1777143005 | 16.11° C | 38% | 1020.4 hPa | 0 mm | - | - | - |
| 1777142401 | 16.67° C | 37% | 1020.3 hPa | 0 mm | - | - | - |
| 1777141805 | 16.67° C | 35% | 1020.2 hPa | 0 mm | - | - | - |
| 1777141201 | 17.22° C | 34% | 1020.1 hPa | 0 mm | - | - | - |
| 1777140601 | 18.33° C | 34% | 1019.9 hPa | 0 mm | - | - | - |
| 1777140001 | 18.89° C | 34% | 1019.7 hPa | 0 mm | - | - | - |
| 1777139404 | 19.44° C | 34% | 1019.6 hPa | 0 mm | - | - | - |
| 1777138801 | 21.11° C | 30% | 1019.3 hPa | 0 mm | - | - | - |
| 1777138200 | 21.11° C | 30% | 1019.3 hPa | 0 mm | - | - | - |
| 1777137605 | 21.11° C | 30% | 1019.3 hPa | 0 mm | - | - | - |
| 1777137001 | 21.11° C | 30% | 1019.3 hPa | 0 mm | - | - | - |
| 1777136404 | 21.11° C | 30% | 1019.3 hPa | 0 mm | - | - | - |
| 1777135805 | 21.11° C | 30% | 1019.3 hPa | 0 mm | - | - | - |
* Rain latest hour (hover to see other rain measurements)
** Current wind speed in m/s (hover to see current wind gust speed)